Oracle, AZ (85623)

10:11 PM MST on Marts 26, 2015 (GMT -0700)
Oaks | | Change Station
CLOSE
Current Station
Personligvejrstation
Location: Oracle, AZ
Højde: 4550 ft
Vejrstationer i nærheden

Elev 4550 ft 32.61 °N, 110.78 °W | Updated 1 minute ago

Klart
Klart
50.4 ° F
Føles som 50.4 ° F
N
1.0
Vind Skiftende Vind
Gusts 2.0 mph

I dag
Høj -- | Lav -- ° F
--% Risiko for nedbør
I går
Høj -- | Lav -- ° F
Precip. -- tommer
6:19 AM 6:38 PM
Tiltagende halvmåne, 49% visible
Tryk 30.03 tommer
Sigtbarhed 10.0 mil
Skyer Klart
Dugpunkt 12 ° F
Luftfugtighed 21%
Regnmængde 0.00 tommer
Snedybde Ikke tilgængelig.
UV 0.0 fra 12
Pollen 10.50 fra 12
Luftkvalitet Ikke tilgængelig.
Flu Activity Ikke tilgængelig.
METAR KDMA 270458Z AUTO 16006KT 10SM CLR 17/M04 A3012 RMK AO2 SLP169 T01741043 $

More Conditions Fewer Conditions

Tryk 30.03 tommer
Sigtbarhed 10.0 mil
Skyer Klart
Dugpunkt 12 ° F
Luftfugtighed 21%
Regnmængde 0.00 tommer
Snedybde Ikke tilgængelig.
UV 0.0 fra 12
Pollen 10.50 fra 12
Luftkvalitet Ikke tilgængelig.
Flu Activity Ikke tilgængelig.
METAR KDMA 270458Z AUTO 16006KT 10SM CLR 17/M04 A3012 RMK AO2 SLP169 T01741043 $

More Conditions Fewer Conditions

10-Day Weather Forecast

Almanac

Astronomi

Mar. 26, 2015 Opgang Nedgang
Faktisktidspunkt
Civilttusmørke
Nautisktusmørke
Astronomisktusmørke
Måne
Synligtlys’ længde
Dagens længde
Tomorrow will be .
, % of the Moon is Illuminated

Ekstremer i dag

State Highs State Lows

Community

WunderPhotos

Upload Photos

1,808,697 Billeder uploaded!

WunderBlogs® & News

Nearby

Luftkvalitet

  Luftkvalitet AQ-indeks Forureningskilder
Not available.

Snedybde

Station Depth Højde

Jordskælvsaktivitet

By Distance Mag. Time & Date
Minimum magnitude displayed is 2.5.

Kystnære vandtemperaturer

Sted Temperatur

Stations

Vejrstationer i nærheden

Stationenssted Temp. Vindeffekt Dugpunkt Luftfugtighed Vind Precip. Elev Opdateret Type